Sid Moller — WDF9421 — position and weather

sailwx.info

Track history (hours):
 
Tides and Currents Weather Stations Pressure Air Temp Water Temp Dewpoint Dewpoint Depression Visibility Wind Speed Wind Dir Waves Ship Positions

Sid Moller

Owner: Genesis Marine, LLC, Houston, TX. More information available from US FCC via Universal Licensing System and Coast Guard Vessel Documentation Center.

Last reported at 2016-Aug-27 07:32 UTC. Time now 2016-Aug-27 08:09 UTC.
Position N 29°47' W 092°12'.

; draft 3.3 m.

MMSI: 367504980.

Date/timePositionNaut miles runAvg speedWind from/ knotsBaromVisibWave heightAir tempDewpointWater temp
2016-Aug-27 07:32N 29°47' W 092°12'1 0.2
2016-Aug-27 04:32N 29°47' W 092°12'1 1.1
2016-Aug-27 03:33N 29°47' W 092°11'0 0.0
2016-Aug-27 02:33N 29°47' W 092°11'0 0.1
2016-Aug-27 01:33N 29°47' W 092°11'0 0.0
2016-Aug-27 00:33N 29°47' W 092°11'0 0.1
2016-Aug-26 23:33N 29°47' W 092°11'0 0.1
2016-Aug-26 22:33N 29°47' W 092°11'0 0.3
2016-Aug-26 21:33N 29°47' W 092°11'0 0.0
2016-Aug-26 20:33N 29°47' W 092°11'0 0.0
2016-Aug-26 19:30N 29°47' W 092°11'2 1.8
2016-Aug-26 18:34N 29°47' W 092°09'4 3.8
2016-Aug-26 17:33N 29°48' W 092°05'5 4.5
2016-Aug-26 16:33N 29°50' W 091°60'10 3.9
2016-Aug-26 14:08N 29°48' W 091°49'11 4.4
2016-Aug-26 11:33N 29°45' W 091°36'36 3.9
2016-Aug-26 02:16N 29°34' W 090°57'4 5.2
2016-Aug-26 01:34N 29°32' W 090°53'5 4.9
2016-Aug-26 00:34N 29°32' W 090°47'4 4.1
2016-Aug-25 23:34N 29°34' W 090°43'3 2.9
2016-Aug-25 22:34N 29°37' W 090°42'1 0.7
2016-Aug-25 21:31N 29°37' W 090°41'3 2.9
2016-Aug-25 20:33N 29°35' W 090°38'6 3.1
2016-Aug-25 18:32N 29°34' W 090°32'  
Track history (hours):
 
Tides and Currents Weather Stations Pressure Air Temp Water Temp Dewpoint Dewpoint Depression Visibility Wind Speed Wind Dir Waves Ship Positions

Sid Moller

Owner: Genesis Marine, LLC, Houston, TX. More information available from US FCC via Universal Licensing System and Coast Guard Vessel Documentation Center.

Last reported at 2016-Aug-27 07:32 UTC. Time now 2016-Aug-27 08:09 UTC.
Position N 29°47' W 092°12'.

; draft 3.3 m.

MMSI: 367504980.

Date/timePositionNaut miles runAvg speedWind from/ knotsBaromVisibWave heightAir tempDewpointWater temp
2016-Aug-27 07:32N 29°47' W 092°12'1 0.2
2016-Aug-27 04:32N 29°47' W 092°12'1 1.1
2016-Aug-27 03:33N 29°47' W 092°11'0 0.0
2016-Aug-27 02:33N 29°47' W 092°11'0 0.1
2016-Aug-27 01:33N 29°47' W 092°11'0 0.0
2016-Aug-27 00:33N 29°47' W 092°11'0 0.1
2016-Aug-26 23:33N 29°47' W 092°11'0 0.1
2016-Aug-26 22:33N 29°47' W 092°11'0 0.3
2016-Aug-26 21:33N 29°47' W 092°11'0 0.0
2016-Aug-26 20:33N 29°47' W 092°11'0 0.0
2016-Aug-26 19:30N 29°47' W 092°11'2 1.8
2016-Aug-26 18:34N 29°47' W 092°09'4 3.8
2016-Aug-26 17:33N 29°48' W 092°05'5 4.5
2016-Aug-26 16:33N 29°50' W 091°60'10 3.9
2016-Aug-26 14:08N 29°48' W 091°49'11 4.4
2016-Aug-26 11:33N 29°45' W 091°36'36 3.9
2016-Aug-26 02:16N 29°34' W 090°57'4 5.2
2016-Aug-26 01:34N 29°32' W 090°53'5 4.9
2016-Aug-26 00:34N 29°32' W 090°47'4 4.1
2016-Aug-25 23:34N 29°34' W 090°43'3 2.9
2016-Aug-25 22:34N 29°37' W 090°42'1 0.7
2016-Aug-25 21:31N 29°37' W 090°41'3 2.9
2016-Aug-25 20:33N 29°35' W 090°38'6 3.1
2016-Aug-25 18:32N 29°34' W 090°32'  

Dump ship's entire track history